Flight Track Log - Related Links

Times and Time Zones

All times are in EDT time to prevent confusion due to time zone crossing. See the FDX1523 flight status page for this flight to view local times or setup timezone preferences in your user account.

Time Position Orientation Groundspeed Altitude Reporting Facility
EDT Latitude Longitude Course Direction KTS MPH feet Rate Location/Type
Thu 05:34:48 AM 35.0167 -89.9667 180° South 158 182 1,400  Level KMEM
Thu 05:35:36 AM 34.9833 -89.9667 180° South 186 214 3,200 3,000 Climbing KMEM
Thu 05:36:30 AM 34.9500 -89.9000 121° Southeast 280 322 6,500 3,824 Climbing KMEM
Thu 05:37:07 AM 34.9800 -89.8628 45° Northeast 274 315 9,000 3,122 Climbing Memphis Center
Thu 05:38:08 AM 35.0678 -89.8522 North 311 358 11,600 3,174 Climbing Memphis Center
Thu 05:39:08 AM 35.1750 -89.8447 North 371 427 15,400 3,074 Climbing Memphis Center
Thu 05:40:09 AM 35.2875 -89.8381 North 399 459 17,800 2,579 Climbing Memphis Center
Thu 05:41:09 AM 35.4061 -89.8567 353° North 422 486 20,600 2,876 Climbing Memphis Center
Thu 05:42:10 AM 35.5275 -89.8750 353° North 435 501 23,600 3,124 Climbing Memphis Center
Thu 05:43:10 AM 35.6500 -89.8925 353° North 443 510 26,900 2,182 Climbing Memphis Center
Thu 05:44:11 AM 35.7689 -89.9094 353° North 443 510 28,000 545 Climbing Memphis Center
Thu 05:45:11 AM 35.8931 -89.9289 353° North 443 510 28,000  Level Memphis Center
Thu 05:46:12 AM 36.0175 -89.9472 353° North 443 510 28,000  Level Memphis Center
Thu 05:47:12 AM 36.1433 -89.9669 353° North 447 514 28,000  Level Memphis Center
Thu 05:48:12 AM 36.2686 -89.9867 353° North 447 514 28,000  Level Memphis Center
Thu 05:49:13 AM 36.3944 -90.0047 353° North 448 516 28,000  Level Memphis Center
Thu 05:50:13 AM 36.5197 -90.0250 353° North 448 516 28,000  Level Memphis Center
Thu 05:51:14 AM 36.6450 -90.0442 353° North 448 516 28,000  Level Memphis Center
Thu 05:52:14 AM 36.7722 -90.0625 353° North 453 521 28,000  Level Memphis Center
Thu 05:53:14 AM 36.8975 -90.0811 353° North 453 521 28,000  Level Memphis Center
Thu 05:54:15 AM 37.0217 -90.1008 353° North 453 521 28,000  Level Memphis Center
Thu 05:55:15 AM 37.1469 -90.1197 353° North 452 520 28,000 -350 Level Memphis Center
Thu 05:56:15 AM 37.2667 -90.1400 352° North 442 509 27,300 -1,850 Descending Memphis Center
Thu 05:57:15 AM 37.3825 -90.1592 353° North 427 491 24,300 -2,430 Descending Memphis Center
Thu 05:58:16 AM 37.4981 -90.1753 354° North 424 488 22,400 -1,934 Descending Memphis Center
Thu 05:59:16 AM 37.6094 -90.1922 353° North 409 471 20,400 -1,750 Descending Memphis Center
Thu 06:00:16 AM 37.7200 -90.2103 353° North 403 464 18,900 -1,388 Descending Memphis Center
Thu 06:01:17 AM 37.8275 -90.2269 353° North 397 457 17,600 -1,686 Descending Memphis Center
Thu 06:02:17 AM 37.9286 -90.2431 353° North 388 447 15,500 -2,153 Descending Memphis Center
Thu 06:03:28 AM 38.0578 -90.2608 354° North 366 421 12,900 -1,603 Descending Kansas City Center
Thu 06:04:28 AM 38.1511 -90.2425 North 337 388 12,000 -1,600 Descending Kansas City Center
Thu 06:05:28 AM 38.2367 -90.2311 North 312 359 9,700 -1,983 Descending Kansas City Center
Thu 06:06:29 AM 38.3158 -90.2217 North 287 330 8,000 -1,636 Descending Kansas City Center
Thu 06:07:29 AM 38.3886 -90.2133 North 266 306 6,400 -1,550 Descending Kansas City Center
Thu 06:08:29 AM 38.4581 -90.2056 North 264 304 4,900 -1,091 Descending Kansas City Center
Thu 06:09:30 AM 38.5269 -90.1972 North 252 290 4,200 -744 Descending Kansas City Center
Thu 06:10:30 AM 38.5872 -90.1917 North 224 258 3,400 -600 Descending Kansas City Center
Thu 06:11:30 AM 38.6419 -90.1858 North 202 232 3,000 -248 Descending Kansas City Center
Thu 06:12:31 AM 38.6769 -90.2150 327° Northwest 168 193 2,900 -446 Descending Kansas City Center
Thu 06:13:31 AM 38.6989 -90.2586 303° West 149 171 2,100 -700 Descending Kansas City Center
Thu 06:14:31 AM 38.7161 -90.2944 302° West 123 142 1,500 -645 Descending Kansas City Center
Thu 06:15:32 AM 38.7344 -90.3311 303° West 123 142 800 -446 Descending Kansas City Center
Thu 06:16:32 AM 38.7536 -90.3717 301° West 124 143 600 -200 Descending Kansas City Center

Login

Don't have an account? Register now (free) for customized features, flight alerts, and more!